sensor_id;sensor_type;location;lat;lon;timestamp;pressure;altitude;pressure_sealevel;temperature;humidity
58471;BME280;44258;51.288;12.068;2023-04-03T00:00:42;101749.81;;;1.18;62.63
58471;BME280;44258;51.288;12.068;2023-04-03T00:03:14;101751.69;;;1.41;61.98
58471;BME280;44258;51.288;12.068;2023-04-03T00:05:40;101752.81;;;2.04;60.92
58471;BME280;44258;51.288;12.068;2023-04-03T00:08:07;101755.31;;;1.49;62.67
58471;BME280;44258;51.288;12.068;2023-04-03T00:10:34;101756.38;;;2.23;60.25
58471;BME280;44258;51.288;12.068;2023-04-03T00:13:03;101757.22;;;1.95;60.64
58471;BME280;44258;51.288;12.068;2023-04-03T00:15:29;101759.81;;;1.78;60.61
58471;BME280;44258;51.288;12.068;2023-04-03T00:17:56;101756.09;;;1.34;61.59
58471;BME280;44258;51.288;12.068;2023-04-03T00:20:23;101754.47;;;1.65;61.17
58471;BME280;44258;51.288;12.068;2023-04-03T00:22:52;101755.41;;;1.78;60.89
58471;BME280;44258;51.288;12.068;2023-04-03T00:25:19;101758.88;;;1.65;60.79
58471;BME280;44258;51.288;12.068;2023-04-03T00:27:46;101757.66;;;1.00;62.38
58471;BME280;44258;51.288;12.068;2023-04-03T00:30:16;101759.69;;;1.44;61.59
58471;BME280;44258;51.288;12.068;2023-04-03T00:32:47;101753.44;;;1.32;61.88
58471;BME280;44258;51.288;12.068;2023-04-03T00:35:14;101763.00;;;1.06;61.98
58471;BME280;44258;51.288;12.068;2023-04-03T00:37:41;101752.22;;;0.75;63.12
58471;BME280;44258;51.288;12.068;2023-04-03T00:40:10;101762.31;;;1.42;61.53
58471;BME280;44258;51.288;12.068;2023-04-03T00:42:39;101765.75;;;1.17;61.60
58471;BME280;44258;51.288;12.068;2023-04-03T00:45:32;101768.34;;;1.10;61.30
58471;BME280;44258;51.288;12.068;2023-04-03T00:48:05;101762.72;;;0.67;62.74
58471;BME280;44258;51.288;12.068;2023-04-03T00:50:36;101768.81;;;0.57;63.57
58471;BME280;44258;51.288;12.068;2023-04-03T00:53:05;101765.19;;;0.44;62.86
58471;BME280;44258;51.288;12.068;2023-04-03T00:55:33;101760.97;;;0.69;62.45
58471;BME280;44258;51.288;12.068;2023-04-03T00:58:01;101759.66;;;1.41;60.42
58471;BME280;44258;51.288;12.068;2023-04-03T01:00:32;101768.34;;;1.09;61.47
58471;BME280;44258;51.288;12.068;2023-04-03T01:02:59;101767.53;;;1.21;61.06
58471;BME280;44258;51.288;12.068;2023-04-03T01:05:26;101768.38;;;1.17;60.98
58471;BME280;44258;51.288;12.068;2023-04-03T01:07:53;101774.22;;;0.69;61.90
58471;BME280;44258;51.288;12.068;2023-04-03T01:10:20;101766.09;;;0.45;63.15
58471;BME280;44258;51.288;12.068;2023-04-03T01:12:49;101780.19;;;0.42;63.12
58471;BME280;44258;51.288;12.068;2023-04-03T01:15:18;101775.03;;;0.61;63.16
58471;BME280;44258;51.288;12.068;2023-04-03T01:17:49;101771.97;;;1.28;61.30
58471;BME280;44258;51.288;12.068;2023-04-03T01:20:34;101772.59;;;0.85;61.48
58471;BME280;44258;51.288;12.068;2023-04-03T01:23:19;101783.09;;;0.78;62.32
58471;BME280;44258;51.288;12.068;2023-04-03T01:25:51;101776.66;;;0.42;63.16
58471;BME280;44258;51.288;12.068;2023-04-03T01:28:20;101777.88;;;0.85;61.94
58471;BME280;44258;51.288;12.068;2023-04-03T01:30:50;101780.66;;;1.01;61.37
58471;BME280;44258;51.288;12.068;2023-04-03T01:33:21;101783.00;;;0.62;61.91
58471;BME280;44258;51.288;12.068;2023-04-03T01:35:48;101782.78;;;0.38;63.39
58471;BME280;44258;51.288;12.068;2023-04-03T01:38:15;101789.16;;;0.60;62.80
58471;BME280;44258;51.288;12.068;2023-04-03T01:40:42;101793.59;;;0.62;62.94
58471;BME280;44258;51.288;12.068;2023-04-03T01:43:09;101792.88;;;0.85;61.63
58471;BME280;44258;51.288;12.068;2023-04-03T01:45:35;101799.00;;;0.75;61.07
58471;BME280;44258;51.288;12.068;2023-04-03T01:48:03;101796.25;;;0.62;62.50
58471;BME280;44258;51.288;12.068;2023-04-03T01:50:31;101798.31;;;1.05;61.03
58471;BME280;44258;51.288;12.068;2023-04-03T01:52:57;101801.97;;;1.21;60.53
58471;BME280;44258;51.288;12.068;2023-04-03T01:55:29;101807.19;;;1.07;60.33
58471;BME280;44258;51.288;12.068;2023-04-03T01:57:56;101814.28;;;1.13;60.07
58471;BME280;44258;51.288;12.068;2023-04-03T02:00:22;101813.47;;;1.26;60.09
58471;BME280;44258;51.288;12.068;2023-04-03T02:02:49;101821.63;;;1.60;59.30
58471;BME280;44258;51.288;12.068;2023-04-03T02:05:15;101823.03;;;1.05;60.38
58471;BME280;44258;51.288;12.068;2023-04-03T02:07:44;101826.56;;;1.01;61.21
58471;BME280;44258;51.288;12.068;2023-04-03T02:10:11;101824.69;;;0.86;61.32
58471;BME280;44258;51.288;12.068;2023-04-03T02:12:37;101827.66;;;1.34;60.16
58471;BME280;44258;51.288;12.068;2023-04-03T02:15:05;101828.53;;;1.36;59.96
58471;BME280;44258;51.288;12.068;2023-04-03T02:17:31;101831.88;;;0.09;62.59
58471;BME280;44258;51.288;12.068;2023-04-03T02:19:58;101828.50;;;0.21;63.38
58471;BME280;44258;51.288;12.068;2023-04-03T02:22:26;101832.38;;;0.59;61.77
58471;BME280;44258;51.288;12.068;2023-04-03T02:24:54;101832.06;;;0.25;62.93
58471;BME280;44258;51.288;12.068;2023-04-03T02:27:24;101822.03;;;-0.04;63.93
58471;BME280;44258;51.288;12.068;2023-04-03T02:29:50;101829.41;;;0.26;63.63
58471;BME280;44258;51.288;12.068;2023-04-03T02:32:17;101837.34;;;0.26;63.31
58471;BME280;44258;51.288;12.068;2023-04-03T02:34:44;101832.97;;;0.30;63.75
58471;BME280;44258;51.288;12.068;2023-04-03T02:37:10;101831.28;;;0.35;62.96
58471;BME280;44258;51.288;12.068;2023-04-03T02:39:37;101841.03;;;0.39;62.98
58471;BME280;44258;51.288;12.068;2023-04-03T02:42:05;101841.53;;;0.06;64.06
58471;BME280;44258;51.288;12.068;2023-04-03T02:44:32;101832.66;;;-0.01;64.01
58471;BME280;44258;51.288;12.068;2023-04-03T02:46:59;101838.47;;;0.50;62.75
58471;BME280;44258;51.288;12.068;2023-04-03T02:49:25;101842.19;;;-0.14;65.08
58471;BME280;44258;51.288;12.068;2023-04-03T02:51:52;101843.00;;;-0.19;65.06
58471;BME280;44258;51.288;12.068;2023-04-03T02:54:18;101848.97;;;-0.36;65.48
58471;BME280;44258;51.288;12.068;2023-04-03T02:56:53;101848.75;;;0.22;63.64
58471;BME280;44258;51.288;12.068;2023-04-03T02:59:21;101839.25;;;-0.38;65.04
58471;BME280;44258;51.288;12.068;2023-04-03T03:01:48;101851.38;;;0.19;64.21
58471;BME280;44258;51.288;12.068;2023-04-03T03:04:15;101849.53;;;0.12;63.79
58471;BME280;44258;51.288;12.068;2023-04-03T03:06:44;101856.84;;;-0.39;65.24
58471;BME280;44258;51.288;12.068;2023-04-03T03:09:12;101855.44;;;-0.11;65.21
58471;BME280;44258;51.288;12.068;2023-04-03T03:11:39;101850.59;;;0.28;63.59
58471;BME280;44258;51.288;12.068;2023-04-03T03:14:06;101856.91;;;0.42;63.37
58471;BME280;44258;51.288;12.068;2023-04-03T03:16:34;101855.38;;;-0.15;64.07
58471;BME280;44258;51.288;12.068;2023-04-03T03:19:00;101865.59;;;0.30;63.77
58471;BME280;44258;51.288;12.068;2023-04-03T03:21:27;101860.69;;;-0.14;64.75
58471;BME280;44258;51.288;12.068;2023-04-03T03:23:57;101864.66;;;0.24;63.52
58471;BME280;44258;51.288;12.068;2023-04-03T03:26:27;101868.94;;;0.11;63.15
58471;BME280;44258;51.288;12.068;2023-04-03T03:28:53;101861.44;;;-0.22;64.57
58471;BME280;44258;51.288;12.068;2023-04-03T03:31:20;101868.47;;;-0.24;64.86
58471;BME280;44258;51.288;12.068;2023-04-03T03:33:48;101873.47;;;0.24;63.50
58471;BME280;44258;51.288;12.068;2023-04-03T03:36:15;101873.16;;;-0.02;63.91
58471;BME280;44258;51.288;12.068;2023-04-03T03:38:41;101869.84;;;0.16;63.50
58471;BME280;44258;51.288;12.068;2023-04-03T03:41:11;101868.03;;;0.09;64.00
58471;BME280;44258;51.288;12.068;2023-04-03T03:43:38;101878.91;;;0.35;61.93
58471;BME280;44258;51.288;12.068;2023-04-03T03:46:04;101879.59;;;0.17;62.64
58471;BME280;44258;51.288;12.068;2023-04-03T03:48:31;101880.50;;;0.22;63.06
58471;BME280;44258;51.288;12.068;2023-04-03T03:50:59;101878.63;;;0.12;63.25
58471;BME280;44258;51.288;12.068;2023-04-03T03:53:25;101874.72;;;0.59;61.95
58471;BME280;44258;51.288;12.068;2023-04-03T03:55:52;101886.94;;;-0.27;64.28
58471;BME280;44258;51.288;12.068;2023-04-03T03:58:18;101880.78;;;-0.26;64.24
58471;BME280;44258;51.288;12.068;2023-04-03T04:00:46;101884.25;;;0.40;62.75
58471;BME280;44258;51.288;12.068;2023-04-03T04:03:13;101889.19;;;0.09;63.03
58471;BME280;44258;51.288;12.068;2023-04-03T04:05:40;101888.72;;;0.45;62.15
58471;BME280;44258;51.288;12.068;2023-04-03T04:08:08;101901.56;;;0.13;62.88
58471;BME280;44258;51.288;12.068;2023-04-03T04:10:36;101894.53;;;-0.52;65.27
58471;BME280;44258;51.288;12.068;2023-04-03T04:13:04;101893.28;;;-0.15;64.13
58471;BME280;44258;51.288;12.068;2023-04-03T04:15:33;101892.06;;;0.29;62.40
58471;BME280;44258;51.288;12.068;2023-04-03T04:18:02;101892.28;;;0.50;62.05
58471;BME280;44258;51.288;12.068;2023-04-03T04:20:29;101896.91;;;0.71;61.05
58471;BME280;44258;51.288;12.068;2023-04-03T04:22:55;101901.16;;;0.54;61.38
58471;BME280;44258;51.288;12.068;2023-04-03T04:25:23;101902.09;;;0.61;61.14
58471;BME280;44258;51.288;12.068;2023-04-03T04:27:52;101907.44;;;0.65;61.33
58471;BME280;44258;51.288;12.068;2023-04-03T04:30:22;101905.78;;;0.75;61.06
58471;BME280;44258;51.288;12.068;2023-04-03T04:32:48;101902.13;;;0.65;60.94
58471;BME280;44258;51.288;12.068;2023-04-03T04:35:18;101911.16;;;0.83;60.24
58471;BME280;44258;51.288;12.068;2023-04-03T04:37:44;101909.34;;;0.79;60.62
58471;BME280;44258;51.288;12.068;2023-04-03T04:40:11;101912.94;;;0.87;60.15
58471;BME280;44258;51.288;12.068;2023-04-03T04:42:44;101910.34;;;0.91;60.26
58471;BME280;44258;51.288;12.068;2023-04-03T04:45:11;101919.25;;;0.98;60.06
58471;BME280;44258;51.288;12.068;2023-04-03T04:47:38;101914.09;;;1.17;59.45
58471;BME280;44258;51.288;12.068;2023-04-03T04:50:05;101915.00;;;1.22;59.54
58471;BME280;44258;51.288;12.068;2023-04-03T04:52:34;101916.81;;;1.23;59.38
58471;BME280;44258;51.288;12.068;2023-04-03T04:55:01;101921.63;;;0.74;60.05
58471;BME280;44258;51.288;12.068;2023-04-03T04:57:27;101917.50;;;1.00;60.11
58471;BME280;44258;51.288;12.068;2023-04-03T04:59:58;101920.97;;;0.95;59.94
58471;BME280;44258;51.288;12.068;2023-04-03T05:02:25;101929.00;;;1.02;59.67
58471;BME280;44258;51.288;12.068;2023-04-03T05:04:52;101924.28;;;0.74;60.42
58471;BME280;44258;51.288;12.068;2023-04-03T05:07:20;101933.88;;;0.61;60.13
58471;BME280;44258;51.288;12.068;2023-04-03T05:09:47;101928.47;;;0.53;61.21
58471;BME280;44258;51.288;12.068;2023-04-03T05:12:13;101937.91;;;0.28;62.11
58471;BME280;44258;51.288;12.068;2023-04-03T05:14:42;101936.53;;;0.62;61.16
58471;BME280;44258;51.288;12.068;2023-04-03T05:17:10;101936.56;;;0.67;60.93
58471;BME280;44258;51.288;12.068;2023-04-03T05:19:37;101939.34;;;0.04;62.17
58471;BME280;44258;51.288;12.068;2023-04-03T05:22:03;101941.75;;;-0.14;63.26
58471;BME280;44258;51.288;12.068;2023-04-03T05:24:32;101943.91;;;0.16;62.50
58471;BME280;44258;51.288;12.068;2023-04-03T05:26:59;101940.44;;;0.19;62.17
58471;BME280;44258;51.288;12.068;2023-04-03T05:29:26;101944.91;;;0.24;62.22
58471;BME280;44258;51.288;12.068;2023-04-03T05:31:52;101936.75;;;0.06;62.51
58471;BME280;44258;51.288;12.068;2023-04-03T05:34:20;101943.09;;;0.19;62.23
58471;BME280;44258;51.288;12.068;2023-04-03T05:36:47;101947.47;;;-0.46;63.15
58471;BME280;44258;51.288;12.068;2023-04-03T05:39:13;101943.50;;;-0.15;63.53
58471;BME280;44258;51.288;12.068;2023-04-03T05:41:42;101950.63;;;-0.11;63.40
58471;BME280;44258;51.288;12.068;2023-04-03T05:44:09;101952.75;;;0.15;62.60
58471;BME280;44258;51.288;12.068;2023-04-03T05:46:35;101955.06;;;-0.08;62.47
58471;BME280;44258;51.288;12.068;2023-04-03T05:49:02;101950.91;;;0.09;62.58
58471;BME280;44258;51.288;12.068;2023-04-03T05:51:33;101959.34;;;-0.16;62.70
58471;BME280;44258;51.288;12.068;2023-04-03T05:54:04;101965.97;;;0.15;62.78
58471;BME280;44258;51.288;12.068;2023-04-03T05:56:32;101962.03;;;0.57;61.50
58471;BME280;44258;51.288;12.068;2023-04-03T05:59:00;101968.66;;;0.98;60.35
58471;BME280;44258;51.288;12.068;2023-04-03T06:01:27;101979.88;;;0.74;59.58
58471;BME280;44258;51.288;12.068;2023-04-03T06:03:53;101971.78;;;0.58;60.74
58471;BME280;44258;51.288;12.068;2023-04-03T06:06:21;101974.25;;;0.44;61.79
58471;BME280;44258;51.288;12.068;2023-04-03T06:08:49;101971.16;;;0.81;60.51
58471;BME280;44258;51.288;12.068;2023-04-03T06:11:16;101979.13;;;0.85;59.22
58471;BME280;44258;51.288;12.068;2023-04-03T06:13:42;101982.63;;;0.83;60.06
58471;BME280;44258;51.288;12.068;2023-04-03T06:16:18;101980.47;;;1.34;59.13
58471;BME280;44258;51.288;12.068;2023-04-03T06:18:45;101984.50;;;0.18;60.51
58471;BME280;44258;51.288;12.068;2023-04-03T06:21:12;101995.69;;;0.67;59.99
58471;BME280;44258;51.288;12.068;2023-04-03T06:23:38;101982.69;;;0.14;61.29
58471;BME280;44258;51.288;12.068;2023-04-03T06:26:07;101975.69;;;0.92;60.10
58471;BME280;44258;51.288;12.068;2023-04-03T06:28:33;101981.53;;;0.62;59.74
58471;BME280;44258;51.288;12.068;2023-04-03T06:31:03;101980.16;;;0.98;58.45
58471;BME280;44258;51.288;12.068;2023-04-03T06:33:29;101992.91;;;0.55;59.45
58471;BME280;44258;51.288;12.068;2023-04-03T06:35:57;101985.53;;;0.28;61.10
58471;BME280;44258;51.288;12.068;2023-04-03T06:38:24;101989.63;;;0.06;60.54
58471;BME280;44258;51.288;12.068;2023-04-03T06:40:51;101998.31;;;0.64;60.03
58471;BME280;44258;51.288;12.068;2023-04-03T06:43:20;101992.28;;;0.06;60.68
58471;BME280;44258;51.288;12.068;2023-04-03T06:45:46;101993.09;;;0.02;61.27
58471;BME280;44258;51.288;12.068;2023-04-03T06:48:13;101988.13;;;0.23;61.05
58471;BME280;44258;51.288;12.068;2023-04-03T06:50:44;101991.53;;;0.16;60.06
58471;BME280;44258;51.288;12.068;2023-04-03T06:53:11;102000.59;;;1.13;58.56
58471;BME280;44258;51.288;12.068;2023-04-03T06:55:37;102016.22;;;0.87;57.51
58471;BME280;44258;51.288;12.068;2023-04-03T06:58:04;101995.28;;;0.32;59.00
58471;BME280;44258;51.288;12.068;2023-04-03T07:00:34;102005.91;;;1.13;58.81
58471;BME280;44258;51.288;12.068;2023-04-03T07:03:01;102015.53;;;0.30;58.41
58471;BME280;44258;51.288;12.068;2023-04-03T07:05:28;102011.56;;;0.64;58.32
58471;BME280;44258;51.288;12.068;2023-04-03T07:07:58;102008.38;;;0.95;57.65
58471;BME280;44258;51.288;12.068;2023-04-03T07:10:28;102008.84;;;0.58;58.27
58471;BME280;44258;51.288;12.068;2023-04-03T07:12:55;102010.53;;;1.39;56.79
58471;BME280;44258;51.288;12.068;2023-04-03T07:15:23;102016.72;;;1.36;56.86
58471;BME280;44258;51.288;12.068;2023-04-03T07:17:57;102024.00;;;1.57;55.84
58471;BME280;44258;51.288;12.068;2023-04-03T07:20:24;102018.44;;;1.31;55.53
58471;BME280;44258;51.288;12.068;2023-04-03T07:22:50;102030.50;;;2.01;53.55
58471;BME280;44258;51.288;12.068;2023-04-03T07:25:20;102031.09;;;1.61;54.02
58471;BME280;44258;51.288;12.068;2023-04-03T07:27:47;102026.91;;;1.96;54.12
58471;BME280;44258;51.288;12.068;2023-04-03T07:30:14;102031.69;;;1.31;54.69
58471;BME280;44258;51.288;12.068;2023-04-03T07:32:42;102039.25;;;0.96;56.26
58471;BME280;44258;51.288;12.068;2023-04-03T07:35:12;102034.69;;;1.72;55.96
58471;BME280;44258;51.288;12.068;2023-04-03T07:37:41;102036.53;;;1.78;55.26
58471;BME280;44258;51.288;12.068;2023-04-03T07:40:08;102037.59;;;2.08;52.95
58471;BME280;44258;51.288;12.068;2023-04-03T07:42:36;102057.19;;;2.30;52.49
58471;BME280;44258;51.288;12.068;2023-04-03T07:45:04;102040.69;;;1.47;54.42
58471;BME280;44258;51.288;12.068;2023-04-03T07:47:33;102035.25;;;1.35;55.82
58471;BME280;44258;51.288;12.068;2023-04-03T07:50:04;102041.63;;;1.57;55.04
58471;BME280;44258;51.288;12.068;2023-04-03T07:52:33;102044.47;;;1.81;54.45
58471;BME280;44258;51.288;12.068;2023-04-03T07:55:03;102033.47;;;2.62;52.93
58471;BME280;44258;51.288;12.068;2023-04-03T07:57:33;102049.22;;;2.27;51.88
58471;BME280;44258;51.288;12.068;2023-04-03T08:00:00;102044.25;;;1.49;53.87
58471;BME280;44258;51.288;12.068;2023-04-03T08:02:27;102058.41;;;0.71;55.55
58471;BME280;44258;51.288;12.068;2023-04-03T08:04:58;102038.31;;;0.89;55.92
58471;BME280;44258;51.288;12.068;2023-04-03T08:07:27;102042.06;;;1.06;53.33
58471;BME280;44258;51.288;12.068;2023-04-03T08:09:58;102034.88;;;0.98;54.54
58471;BME280;44258;51.288;12.068;2023-04-03T08:12:25;102038.84;;;1.40;54.06
58471;BME280;44258;51.288;12.068;2023-04-03T08:14:55;102040.53;;;1.31;53.67
58471;BME280;44258;51.288;12.068;2023-04-03T08:17:22;102037.53;;;1.97;53.38
58471;BME280;44258;51.288;12.068;2023-04-03T08:19:53;102033.13;;;1.96;53.62
58471;BME280;44258;51.288;12.068;2023-04-03T08:22:20;102031.34;;;2.00;53.22
58471;BME280;44258;51.288;12.068;2023-04-03T08:24:48;102042.75;;;1.85;52.60
58471;BME280;44258;51.288;12.068;2023-04-03T08:27:26;102021.88;;;2.42;52.94
58471;BME280;44258;51.288;12.068;2023-04-03T08:29:56;102040.44;;;2.42;52.15
58471;BME280;44258;51.288;12.068;2023-04-03T08:32:23;102045.94;;;2.82;50.71
58471;BME280;44258;51.288;12.068;2023-04-03T08:34:57;102034.44;;;2.90;51.21
58471;BME280;44258;51.288;12.068;2023-04-03T08:37:34;102040.06;;;1.79;50.53
58471;BME280;44258;51.288;12.068;2023-04-03T08:40:01;102046.03;;;1.51;51.37
58471;BME280;44258;51.288;12.068;2023-04-03T08:42:42;102038.63;;;2.31;50.19
58471;BME280;44258;51.288;12.068;2023-04-03T08:45:18;102039.44;;;2.20;51.59
58471;BME280;44258;51.288;12.068;2023-04-03T08:47:53;102047.38;;;2.15;51.47
58471;BME280;44258;51.288;12.068;2023-04-03T08:50:26;102042.16;;;2.29;51.34
58471;BME280;44258;51.288;12.068;2023-04-03T08:52:58;102049.19;;;2.21;48.40
58471;BME280;44258;51.288;12.068;2023-04-03T08:55:34;102044.94;;;2.53;49.16
58471;BME280;44258;51.288;12.068;2023-04-03T08:58:09;102038.97;;;3.25;46.84
58471;BME280;44258;51.288;12.068;2023-04-03T09:00:47;102044.25;;;3.07;45.16
58471;BME280;44258;51.288;12.068;2023-04-03T09:03:16;102050.38;;;2.80;47.23
58471;BME280;44258;51.288;12.068;2023-04-03T09:05:48;102057.50;;;1.52;50.54
58471;BME280;44258;51.288;12.068;2023-04-03T09:08:22;102056.09;;;1.94;51.45
58471;BME280;44258;51.288;12.068;2023-04-03T09:10:51;102053.44;;;1.94;50.32
58471;BME280;44258;51.288;12.068;2023-04-03T09:13:26;102056.03;;;1.89;48.07
58471;BME280;44258;51.288;12.068;2023-04-03T09:16:10;102059.66;;;1.96;49.37
58471;BME280;44258;51.288;12.068;2023-04-03T09:18:44;102048.06;;;1.86;50.00
58471;BME280;44258;51.288;12.068;2023-04-03T09:21:17;102057.78;;;1.87;50.51
58471;BME280;44258;51.288;12.068;2023-04-03T09:23:50;102053.53;;;2.11;50.17
58471;BME280;44258;51.288;12.068;2023-04-03T09:26:19;102054.59;;;2.38;50.62
58471;BME280;44258;51.288;12.068;2023-04-03T09:28:52;102054.00;;;3.06;49.81
58471;BME280;44258;51.288;12.068;2023-04-03T09:31:31;102045.25;;;3.57;47.34
58471;BME280;44258;51.288;12.068;2023-04-03T09:34:06;102046.00;;;3.05;46.50
58471;BME280;44258;51.288;12.068;2023-04-03T09:36:38;102052.34;;;3.55;46.21
58471;BME280;44258;51.288;12.068;2023-04-03T09:39:13;102050.53;;;3.44;46.33
58471;BME280;44258;51.288;12.068;2023-04-03T09:41:40;102051.44;;;3.74;46.19
58471;BME280;44258;51.288;12.068;2023-04-03T09:44:24;102043.47;;;3.68;44.62
58471;BME280;44258;51.288;12.068;2023-04-03T09:46:50;102038.06;;;3.29;44.44
58471;BME280;44258;51.288;12.068;2023-04-03T09:49:18;102040.72;;;3.16;45.89
58471;BME280;44258;51.288;12.068;2023-04-03T09:51:55;102039.03;;;3.71;43.79
58471;BME280;44258;51.288;12.068;2023-04-03T09:54:31;102043.34;;;3.06;45.24
58471;BME280;44258;51.288;12.068;2023-04-03T09:57:03;102043.38;;;3.12;41.93
58471;BME280;44258;51.288;12.068;2023-04-03T09:59:34;102040.59;;;2.72;45.60
58471;BME280;44258;51.288;12.068;2023-04-03T10:02:03;102049.50;;;2.87;44.33
58471;BME280;44258;51.288;12.068;2023-04-03T10:04:40;102040.69;;;3.11;44.71
58471;BME280;44258;51.288;12.068;2023-04-03T10:07:28;102021.25;;;3.41;44.95
58471;BME280;44258;51.288;12.068;2023-04-03T10:09:56;102022.16;;;3.72;45.78
58471;BME280;44258;51.288;12.068;2023-04-03T10:12:24;102029.22;;;3.30;44.60
58471;BME280;44258;51.288;12.068;2023-04-03T10:14:57;102038.03;;;3.02;46.10
58471;BME280;44258;51.288;12.068;2023-04-03T10:17:32;102034.22;;;2.30;47.18
58471;BME280;44258;51.288;12.068;2023-04-03T10:20:10;102035.00;;;2.17;46.42
58471;BME280;44258;51.288;12.068;2023-04-03T10:22:47;102022.59;;;2.10;46.05
58471;BME280;44258;51.288;12.068;2023-04-03T10:25:21;102014.84;;;2.55;46.26
58471;BME280;44258;51.288;12.068;2023-04-03T10:27:55;102008.75;;;2.76;46.12
58471;BME280;44258;51.288;12.068;2023-04-03T10:30:34;102019.44;;;3.00;43.83
58471;BME280;44258;51.288;12.068;2023-04-03T10:33:19;102019.47;;;3.20;43.88
58471;BME280;44258;51.288;12.068;2023-04-03T10:35:57;102015.97;;;3.77;44.10
58471;BME280;44258;51.288;12.068;2023-04-03T10:38:38;102015.09;;;3.55;44.14
58471;BME280;44258;51.288;12.068;2023-04-03T10:41:17;101998.22;;;3.68;44.93
58471;BME280;44258;51.288;12.068;2023-04-03T10:43:53;102014.19;;;3.62;44.18
58471;BME280;44258;51.288;12.068;2023-04-03T10:46:29;102014.19;;;3.72;44.24
58471;BME280;44258;51.288;12.068;2023-04-03T10:49:16;101998.13;;;4.28;43.10
58471;BME280;44258;51.288;12.068;2023-04-03T10:51:48;102005.22;;;4.32;42.57
58471;BME280;44258;51.288;12.068;2023-04-03T10:54:33;101998.22;;;3.86;42.21
58471;BME280;44258;51.288;12.068;2023-04-03T10:57:21;102007.91;;;4.21;41.90
58471;BME280;44258;51.288;12.068;2023-04-03T10:59:52;101996.38;;;4.22;42.00
58471;BME280;44258;51.288;12.068;2023-04-03T11:05:30;101993.72;;;4.13;42.34
58471;BME280;44258;51.288;12.068;2023-04-03T11:08:15;101989.38;;;3.63;40.70
58471;BME280;44258;51.288;12.068;2023-04-03T11:10:49;101987.59;;;3.77;42.78
58471;BME280;44258;51.288;12.068;2023-04-03T11:13:24;101990.03;;;4.49;41.31
58471;BME280;44258;51.288;12.068;2023-04-03T11:15:53;101991.03;;;4.19;41.87
58471;BME280;44258;51.288;12.068;2023-04-03T11:18:28;101999.09;;;3.91;43.03
58471;BME280;44258;51.288;12.068;2023-04-03T11:21:05;101989.31;;;3.32;42.88
58471;BME280;44258;51.288;12.068;2023-04-03T11:23:45;101990.25;;;3.62;43.66
58471;BME280;44258;51.288;12.068;2023-04-03T11:26:16;101986.66;;;4.03;42.90
58471;BME280;44258;51.288;12.068;2023-04-03T11:28:44;101980.50;;;3.41;43.41
58471;BME280;44258;51.288;12.068;2023-04-03T11:31:23;101994.50;;;2.60;43.93
58471;BME280;44258;51.288;12.068;2023-04-03T11:34:02;101986.66;;;3.04;44.12
58471;BME280;44258;51.288;12.068;2023-04-03T11:36:39;101976.91;;;3.34;42.15
58471;BME280;44258;51.288;12.068;2023-04-03T11:39:20;101981.31;;;4.13;41.51
58471;BME280;44258;51.288;12.068;2023-04-03T11:41:50;101970.75;;;3.73;42.12
58471;BME280;44258;51.288;12.068;2023-04-03T11:44:31;101984.94;;;3.69;42.50
58471;BME280;44258;51.288;12.068;2023-04-03T11:47:04;101970.44;;;4.64;41.30
58471;BME280;44258;51.288;12.068;2023-04-03T11:50:03;101976.00;;;4.07;42.50
58471;BME280;44258;51.288;12.068;2023-04-03T11:55:52;101960.81;;;4.29;41.60
58471;BME280;44258;51.288;12.068;2023-04-03T11:58:28;101955.63;;;3.85;42.83
58471;BME280;44258;51.288;12.068;2023-04-03T12:01:02;101960.13;;;3.61;42.81
58471;BME280;44258;51.288;12.068;2023-04-03T12:07:12;101963.63;;;3.22;43.55
58471;BME280;44258;51.288;12.068;2023-04-03T12:12:59;101944.47;;;4.99;38.26
58471;BME280;44258;51.288;12.068;2023-04-03T12:15:52;101942.84;;;4.78;38.94
58471;BME280;44258;51.288;12.068;2023-04-03T12:18:58;101942.19;;;4.29;41.31
58471;BME280;44258;51.288;12.068;2023-04-03T12:24:26;101934.38;;;3.74;41.41
58471;BME280;44258;51.288;12.068;2023-04-03T12:27:03;101935.28;;;3.71;42.15
58471;BME280;44258;51.288;12.068;2023-04-03T12:29:37;101933.31;;;4.27;42.37
58471;BME280;44258;51.288;12.068;2023-04-03T12:32:14;101930.34;;;4.86;40.99
58471;BME280;44258;51.288;12.068;2023-04-03T12:34:56;101931.47;;;4.42;39.80
58471;BME280;44258;51.288;12.068;2023-04-03T12:37:40;101942.31;;;4.02;41.15
58471;BME280;44258;51.288;12.068;2023-04-03T12:40:16;101939.56;;;4.17;42.08
58471;BME280;44258;51.288;12.068;2023-04-03T12:43:11;101950.31;;;3.94;42.31
58471;BME280;44258;51.288;12.068;2023-04-03T12:45:47;101938.84;;;3.63;42.45
58471;BME280;44258;51.288;12.068;2023-04-03T12:48:26;101925.44;;;3.95;42.59
58471;BME280;44258;51.288;12.068;2023-04-03T12:50:54;101935.28;;;3.64;41.76
58471;BME280;44258;51.288;12.068;2023-04-03T12:53:24;101936.19;;;3.52;41.78
58471;BME280;44258;51.288;12.068;2023-04-03T12:56:18;101931.75;;;3.59;41.72
58471;BME280;44258;51.288;12.068;2023-04-03T12:58:45;101930.84;;;3.03;41.76
58471;BME280;44258;51.288;12.068;2023-04-03T13:01:16;101930.84;;;3.15;41.70
58471;BME280;44258;51.288;12.068;2023-04-03T13:03:48;101923.75;;;3.62;40.23
58471;BME280;44258;51.288;12.068;2023-04-03T13:06:18;101929.84;;;4.18;41.83
58471;BME280;44258;51.288;12.068;2023-04-03T13:08:49;101930.53;;;4.53;39.63
58471;BME280;44258;51.288;12.068;2023-04-03T13:11:16;101923.72;;;3.89;40.67
58471;BME280;44258;51.288;12.068;2023-04-03T13:13:56;101926.38;;;3.89;41.91
58471;BME280;44258;51.288;12.068;2023-04-03T13:16:26;101928.03;;;4.18;41.84
58471;BME280;44258;51.288;12.068;2023-04-03T13:18:57;101930.81;;;3.77;40.36
58471;BME280;44258;51.288;12.068;2023-04-03T13:21:29;101930.84;;;3.32;40.88
58471;BME280;44258;51.288;12.068;2023-04-03T13:23:59;101931.78;;;3.52;41.24